createdAt,value
2023-02-12T00:00:48.033Z,6.57
2023-02-12T00:03:14.752Z,7.55
2023-02-12T00:05:41.861Z,7.70
2023-02-12T00:08:11.302Z,7.03
2023-02-12T00:10:43.204Z,8.43
2023-02-12T00:13:11.330Z,7.97
2023-02-12T00:15:43.106Z,8.32
2023-02-12T00:18:10.407Z,8.00
2023-02-12T00:20:38.009Z,7.50
2023-02-12T00:23:05.455Z,7.88
2023-02-12T00:25:32.408Z,8.10
2023-02-12T00:27:59.110Z,8.68
2023-02-12T00:30:25.935Z,7.85
2023-02-12T00:32:52.554Z,8.35
2023-02-12T00:35:19.156Z,8.27
2023-02-12T00:37:45.700Z,8.43
2023-02-12T00:40:12.743Z,8.48
2023-02-12T00:42:39.372Z,8.60
2023-02-12T00:45:06.248Z,7.55
2023-02-12T00:47:32.858Z,7.53
2023-02-12T00:49:59.850Z,8.68
2023-02-12T00:52:26.434Z,8.63
2023-02-12T00:54:53.040Z,8.40
2023-02-12T00:57:19.622Z,8.68
2023-02-12T00:59:46.175Z,8.13
2023-02-12T01:02:12.833Z,8.68
2023-02-12T01:04:39.464Z,7.97
2023-02-12T01:07:06.077Z,7.30
2023-02-12T01:09:32.794Z,8.13
2023-02-12T01:11:59.413Z,8.40
2023-02-12T01:14:26.013Z,8.55
2023-02-12T01:16:52.588Z,7.88
2023-02-12T01:19:19.170Z,7.57
2023-02-12T01:21:45.810Z,7.07
2023-02-12T01:24:12.485Z,7.90
2023-02-12T01:26:39.126Z,8.00
2023-02-12T01:29:07.636Z,7.70
2023-02-12T01:31:38.542Z,8.65
2023-02-12T01:34:06.820Z,9.25
2023-02-12T01:36:33.835Z,8.90
2023-02-12T01:39:02.811Z,8.70
2023-02-12T01:41:33.483Z,9.65
2023-02-12T01:44:19.681Z,9.88
2023-02-12T01:46:48.951Z,9.80
2023-02-12T01:49:29.410Z,10.00
2023-02-12T01:52:02.735Z,9.05
2023-02-12T01:54:30.003Z,10.20
2023-02-12T01:56:56.791Z,11.02
2023-02-12T01:59:24.584Z,9.88
2023-02-12T02:01:51.305Z,12.13
2023-02-12T02:04:23.696Z,11.02
2023-02-12T02:06:58.395Z,12.55
2023-02-12T02:09:26.409Z,12.15
2023-02-12T02:12:11.686Z,11.90
2023-02-12T02:14:40.249Z,12.13
2023-02-12T02:17:28.042Z,12.27
2023-02-12T02:20:28.385Z,13.38
2023-02-12T02:23:07.309Z,12.68
2023-02-12T02:25:57.481Z,13.25
2023-02-12T02:29:04.736Z,12.23
2023-02-12T02:31:37.472Z,13.27
2023-02-12T02:34:10.509Z,13.20
2023-02-12T02:37:19.619Z,13.15
2023-02-12T02:39:46.264Z,12.55
2023-02-12T02:42:37.569Z,12.68
2023-02-12T02:45:10.064Z,12.88
2023-02-12T02:48:15.859Z,12.52
2023-02-12T02:50:47.741Z,12.25
2023-02-12T02:53:29.853Z,12.57
2023-02-12T02:56:01.559Z,12.07
2023-02-12T02:58:35.831Z,12.68
2023-02-12T03:01:21.197Z,11.88
2023-02-12T03:03:59.066Z,12.68
2023-02-12T03:06:47.089Z,12.45
2023-02-12T03:09:34.868Z,13.38
2023-02-12T03:12:06.319Z,12.38
2023-02-12T03:14:39.592Z,11.98
2023-02-12T03:17:13.926Z,11.88
2023-02-12T03:19:46.745Z,10.65
2023-02-12T03:22:23.292Z,11.32
2023-02-12T03:24:54.251Z,11.23
2023-02-12T03:27:33.849Z,10.13
2023-02-12T03:30:01.660Z,10.23
2023-02-12T03:32:28.323Z,10.65
2023-02-12T03:35:25.426Z,11.23
2023-02-12T03:38:07.421Z,10.45
2023-02-12T03:40:51.201Z,10.82
2023-02-12T03:43:28.493Z,9.90
2023-02-12T03:46:04.645Z,10.35
2023-02-12T03:48:44.076Z,10.70
2023-02-12T03:51:29.169Z,10.20
2023-02-12T03:53:57.544Z,11.70
2023-02-12T03:56:37.816Z,11.30
2023-02-12T03:59:05.603Z,11.55
2023-02-12T04:01:34.118Z,11.80
2023-02-12T04:04:05.507Z,11.95
2023-02-12T04:06:32.252Z,12.97
2023-02-12T04:09:03.475Z,12.35
2023-02-12T04:11:44.104Z,12.27
2023-02-12T04:14:14.426Z,11.45
2023-02-12T04:16:51.920Z,12.43
2023-02-12T04:19:28.002Z,12.90
2023-02-12T04:22:36.296Z,11.95
2023-02-12T04:25:15.011Z,11.40
2023-02-12T04:27:52.506Z,13.02
2023-02-12T04:30:29.115Z,11.82
2023-02-12T04:33:02.073Z,11.40
2023-02-12T04:35:36.505Z,11.10
2023-02-12T04:38:06.149Z,12.90
2023-02-12T04:40:33.100Z,12.18
2023-02-12T04:42:59.834Z,12.63
2023-02-12T04:45:29.690Z,11.95
2023-02-12T04:47:57.081Z,11.98
2023-02-12T04:50:23.899Z,10.20
2023-02-12T04:52:51.857Z,11.07
2023-02-12T04:55:19.166Z,11.55
2023-02-12T04:57:45.930Z,11.38
2023-02-12T05:00:15.043Z,11.43
2023-02-12T05:02:41.870Z,11.52
2023-02-12T05:05:08.718Z,11.75
2023-02-12T05:07:35.542Z,11.07
2023-02-12T05:10:02.322Z,11.75
2023-02-12T05:12:28.984Z,11.05
2023-02-12T05:14:55.791Z,10.35
2023-02-12T05:17:23.761Z,10.65
2023-02-12T05:19:50.596Z,11.32
2023-02-12T05:22:17.980Z,9.65
2023-02-12T05:24:44.848Z,9.73
2023-02-12T05:27:11.602Z,10.52
2023-02-12T05:29:38.393Z,9.65
2023-02-12T05:32:06.938Z,9.55
2023-02-12T05:34:34.416Z,10.30
2023-02-12T05:37:01.082Z,10.30
2023-02-12T05:39:27.806Z,11.50
2023-02-12T05:41:54.622Z,11.20
2023-02-12T05:44:21.358Z,11.38
2023-02-12T05:46:48.114Z,10.93
2023-02-12T05:49:14.838Z,13.48
2023-02-12T05:51:42.046Z,11.20
2023-02-12T05:54:08.863Z,11.73
2023-02-12T05:56:38.057Z,13.27
2023-02-12T05:59:12.489Z,11.90
2023-02-12T06:01:43.117Z,13.20
2023-02-12T06:04:24.599Z,12.93
2023-02-12T06:06:52.776Z,12.80
2023-02-12T06:09:19.779Z,12.50
2023-02-12T06:11:46.399Z,10.88
2023-02-12T06:14:16.016Z,11.57
2023-02-12T06:16:46.754Z,11.52
2023-02-12T06:19:13.487Z,12.55
2023-02-12T06:21:40.715Z,9.05
2023-02-12T06:24:07.604Z,13.45
2023-02-12T06:26:34.279Z,11.52
2023-02-12T06:29:01.694Z,12.23
2023-02-12T06:31:33.766Z,13.68
2023-02-12T06:34:02.816Z,12.43
2023-02-12T06:36:30.169Z,10.77
2023-02-12T06:38:56.953Z,10.32
2023-02-12T06:41:24.377Z,11.15
2023-02-12T06:43:51.422Z,10.82
2023-02-12T06:46:18.234Z,10.05
2023-02-12T06:48:45.306Z,9.80
2023-02-12T06:51:15.130Z,12.30
2023-02-12T06:53:42.176Z,11.20
2023-02-12T06:56:13.686Z,9.48
2023-02-12T06:58:42.176Z,10.55
2023-02-12T07:01:13.468Z,10.77
2023-02-12T07:03:42.180Z,10.88
2023-02-12T07:06:11.897Z,10.77
2023-02-12T07:08:38.998Z,10.48
2023-02-12T07:11:06.245Z,10.60
2023-02-12T07:13:35.042Z,11.65
2023-02-12T07:16:09.502Z,12.75
2023-02-12T07:18:37.315Z,11.07
2023-02-12T07:21:05.861Z,12.75
2023-02-12T07:23:33.364Z,10.98
2023-02-12T07:26:13.533Z,12.20
2023-02-12T07:28:43.961Z,11.63
2023-02-12T07:31:15.097Z,18.55
2023-02-12T07:33:42.919Z,12.27
2023-02-12T07:36:13.170Z,11.30
2023-02-12T07:38:40.196Z,11.82
2023-02-12T07:41:12.506Z,12.25
2023-02-12T07:43:44.367Z,12.77
2023-02-12T07:46:20.660Z,12.55
2023-02-12T07:48:48.228Z,10.45
2023-02-12T07:51:19.410Z,13.85
2023-02-12T07:53:47.038Z,14.45
2023-02-12T07:56:25.611Z,13.43
2023-02-12T07:58:53.601Z,13.20
2023-02-12T08:01:21.755Z,14.63
2023-02-12T08:03:50.731Z,14.57
2023-02-12T08:06:20.370Z,19.00
2023-02-12T08:08:47.908Z,15.32
2023-02-12T08:11:15.854Z,15.13
2023-02-12T08:13:42.885Z,14.20
2023-02-12T08:16:15.825Z,14.57
2023-02-12T08:18:43.511Z,14.80
2023-02-12T08:21:16.525Z,14.57
2023-02-12T08:23:43.090Z,14.35
2023-02-12T08:26:14.176Z,13.63
2023-02-12T08:28:46.652Z,14.68
2023-02-12T08:31:17.290Z,16.13
2023-02-12T08:33:45.690Z,14.38
2023-02-12T08:36:15.616Z,13.05
2023-02-12T08:38:47.024Z,16.67
2023-02-12T08:41:22.345Z,24.13
2023-02-12T08:43:50.000Z,16.67
2023-02-12T08:46:21.858Z,17.48
2023-02-12T08:48:48.595Z,16.60
2023-02-12T08:51:20.640Z,18.33
2023-02-12T08:53:51.477Z,17.70
2023-02-12T08:56:18.888Z,17.92
2023-02-12T08:58:48.795Z,17.40
2023-02-12T09:01:26.194Z,17.90
2023-02-12T09:03:56.623Z,16.10
2023-02-12T09:06:25.300Z,18.90
2023-02-12T09:08:55.868Z,17.83
2023-02-12T09:11:26.709Z,15.82
2023-02-12T09:13:56.020Z,15.95
2023-02-12T09:16:22.795Z,17.65
2023-02-12T09:18:49.398Z,16.10
2023-02-12T09:21:22.191Z,17.08
2023-02-12T09:23:49.422Z,17.60
2023-02-12T09:26:20.857Z,16.27
2023-02-12T09:28:49.835Z,17.40
2023-02-12T09:31:21.058Z,21.35
2023-02-12T09:33:51.693Z,16.83
2023-02-12T09:36:21.032Z,16.48
2023-02-12T09:38:48.843Z,17.17
2023-02-12T09:41:52.840Z,17.23
2023-02-12T09:44:28.668Z,16.58
2023-02-12T09:47:15.463Z,17.27
2023-02-12T09:49:48.822Z,15.82
2023-02-12T09:52:22.499Z,19.52
2023-02-12T09:54:50.404Z,19.00
2023-02-12T09:57:34.645Z,16.85
2023-02-12T10:00:24.925Z,18.55
2023-02-12T10:02:53.802Z,17.92
2023-02-12T10:05:27.196Z,20.52
2023-02-12T10:08:06.023Z,18.55
2023-02-12T10:10:52.561Z,15.93
2023-02-12T10:13:26.518Z,17.35
2023-02-12T10:16:16.941Z,18.88
2023-02-12T10:18:52.527Z,18.67
2023-02-12T10:21:46.354Z,19.65
2023-02-12T10:24:18.946Z,18.95
2023-02-12T10:26:53.141Z,17.63
2023-02-12T10:29:26.062Z,17.80
2023-02-12T10:32:00.707Z,18.13
2023-02-12T10:34:33.496Z,19.52
2023-02-12T10:37:10.436Z,17.88
2023-02-12T10:39:42.593Z,18.02
2023-02-12T10:42:18.534Z,18.60
2023-02-12T10:44:46.160Z,19.23
2023-02-12T10:47:20.724Z,18.65
2023-02-12T10:49:55.969Z,19.27
2023-02-12T10:52:37.876Z,22.15
2023-02-12T10:55:24.868Z,17.95
2023-02-12T10:57:51.973Z,15.55
2023-02-12T11:00:26.396Z,19.13
2023-02-12T11:03:06.790Z,18.75
2023-02-12T11:05:36.180Z,16.33
2023-02-12T11:08:04.645Z,19.80
2023-02-12T11:10:40.365Z,19.90
2023-02-12T11:13:22.474Z,18.75
2023-02-12T11:15:49.769Z,20.65
2023-02-12T11:18:33.055Z,19.33
2023-02-12T11:21:05.323Z,18.23
2023-02-12T11:26:04.770Z,16.63
2023-02-12T11:28:35.208Z,17.27
2023-02-12T11:31:10.596Z,18.60
2023-02-12T11:33:38.989Z,17.98
2023-02-12T11:36:17.267Z,18.70
2023-02-12T11:38:55.906Z,20.20
2023-02-12T11:41:22.549Z,20.52
2023-02-12T11:43:50.889Z,19.55
2023-02-12T11:46:25.758Z,19.13
2023-02-12T11:48:55.572Z,17.73
2023-02-12T11:51:26.656Z,15.82
2023-02-12T11:53:56.325Z,16.63
2023-02-12T11:56:23.046Z,16.38
2023-02-12T11:58:53.314Z,18.15
2023-02-12T12:01:30.096Z,17.00
2023-02-12T12:04:05.620Z,18.58
2023-02-12T12:06:38.263Z,16.98
2023-02-12T12:09:16.862Z,17.20
2023-02-12T12:12:10.525Z,19.92
2023-02-12T12:15:04.363Z,16.55
2023-02-12T12:18:08.723Z,17.83
2023-02-12T12:20:47.521Z,18.58
2023-02-12T12:23:40.416Z,18.13
2023-02-12T12:26:13.706Z,17.35
2023-02-12T12:29:02.430Z,15.50
2023-02-12T12:31:53.899Z,26.60
2023-02-12T12:34:23.896Z,17.30
2023-02-12T12:37:05.464Z,19.05
2023-02-12T12:40:02.872Z,18.47
2023-02-12T12:42:29.525Z,15.68
2023-02-12T12:45:06.081Z,16.85
2023-02-12T12:47:53.583Z,17.27
2023-02-12T12:50:29.413Z,19.55
2023-02-12T12:52:55.948Z,18.02
2023-02-12T12:55:49.098Z,19.23
2023-02-12T12:58:18.830Z,19.38
2023-02-12T13:01:03.944Z,18.02
2023-02-12T13:04:05.708Z,15.73
2023-02-12T13:06:59.644Z,17.20
2023-02-12T13:09:38.501Z,16.58
2023-02-12T13:12:14.336Z,14.98
2023-02-12T13:14:43.751Z,18.35
2023-02-12T13:17:59.108Z,16.77
2023-02-12T13:20:31.726Z,16.58
2023-02-12T13:23:24.558Z,17.10
2023-02-12T13:25:57.591Z,17.25
2023-02-12T13:28:49.271Z,15.60
2023-02-12T13:31:32.881Z,25.17
2023-02-12T13:34:05.029Z,22.05
2023-02-12T13:36:34.872Z,15.52
2023-02-12T13:39:18.893Z,16.38
2023-02-12T13:41:57.326Z,14.57
2023-02-12T13:44:37.054Z,13.35
2023-02-12T13:47:12.128Z,16.60
2023-02-12T13:49:48.240Z,19.98
2023-02-12T13:52:36.415Z,17.90
2023-02-12T13:55:29.151Z,18.83
2023-02-12T14:00:50.156Z,17.10
2023-02-12T14:03:16.966Z,19.73
2023-02-12T14:05:43.814Z,20.27
2023-02-12T14:08:34.822Z,19.60
2023-02-12T14:11:12.295Z,19.77
2023-02-12T14:13:56.644Z,19.73
2023-02-12T14:16:43.531Z,17.60
2023-02-12T14:19:51.218Z,17.30
2023-02-12T14:22:26.718Z,27.70
2023-02-12T14:24:55.632Z,20.98
2023-02-12T14:27:31.324Z,20.42
2023-02-12T14:30:07.176Z,21.67
2023-02-12T14:32:53.509Z,21.33
2023-02-12T14:35:36.697Z,22.05
2023-02-12T14:38:24.604Z,22.65
2023-02-12T14:40:53.648Z,23.38
2023-02-12T14:43:55.347Z,22.33
2023-02-12T14:46:26.225Z,23.50
2023-02-12T14:49:05.604Z,23.65
2023-02-12T14:52:35.449Z,24.67
2023-02-12T14:55:06.534Z,23.55
2023-02-12T14:57:40.085Z,23.38
2023-02-12T15:00:18.840Z,22.70
2023-02-12T15:02:51.468Z,24.13
2023-02-12T15:05:47.767Z,23.92
2023-02-12T15:08:40.194Z,25.73
2023-02-12T15:11:19.543Z,22.70
2023-02-12T15:13:57.119Z,23.13
2023-02-12T15:16:43.060Z,24.90
2023-02-12T15:19:37.415Z,22.40
2023-02-12T15:22:04.129Z,24.00
2023-02-12T15:24:30.757Z,24.02
2023-02-12T15:26:59.660Z,27.17
2023-02-12T15:29:33.453Z,23.55
2023-02-12T15:32:04.289Z,25.40
2023-02-12T15:34:33.805Z,23.88
2023-02-12T15:37:03.064Z,26.77
2023-02-12T15:39:57.691Z,24.60
2023-02-12T15:42:36.019Z,25.77
2023-02-12T15:45:08.205Z,29.25
2023-02-12T15:47:38.264Z,27.77
2023-02-12T15:50:05.475Z,29.10
2023-02-12T15:52:38.874Z,27.40
2023-02-12T15:55:06.652Z,26.98
2023-02-12T15:57:33.674Z,27.95
2023-02-12T16:00:11.286Z,29.08
2023-02-12T16:02:37.908Z,28.50
2023-02-12T16:05:05.829Z,28.00
2023-02-12T16:07:38.011Z,28.98
2023-02-12T16:10:06.355Z,28.63
2023-02-12T16:12:37.741Z,30.90
2023-02-12T16:15:05.509Z,27.47
2023-02-12T16:17:34.935Z,28.38
2023-02-12T16:20:04.502Z,28.38
2023-02-12T16:22:36.935Z,29.92
2023-02-12T16:25:13.412Z,29.55
2023-02-12T16:27:40.529Z,30.00
2023-02-12T16:30:33.144Z,29.27
2023-02-12T16:35:32.977Z,28.60
2023-02-12T16:38:11.638Z,32.03
2023-02-12T16:40:40.088Z,31.33
2023-02-12T16:43:29.865Z,33.47
2023-02-12T16:46:05.191Z,30.83
2023-02-12T16:48:38.389Z,32.90
2023-02-12T16:51:06.367Z,33.50
2023-02-12T16:53:36.836Z,32.72
2023-02-12T16:56:05.616Z,35.10
2023-02-12T16:58:32.361Z,34.13
2023-02-12T17:01:02.613Z,35.92
2023-02-12T17:03:29.512Z,40.15
2023-02-12T17:05:56.699Z,33.90
2023-02-12T17:08:25.051Z,42.60
2023-02-12T17:10:52.517Z,32.92
2023-02-12T17:13:20.943Z,32.60
2023-02-12T17:15:54.600Z,33.65
2023-02-12T17:18:22.318Z,32.22
2023-02-12T17:20:56.465Z,34.67
2023-02-12T17:23:23.727Z,35.85
2023-02-12T17:25:50.599Z,36.75
2023-02-12T17:28:17.635Z,35.30
2023-02-12T17:30:47.363Z,33.72
2023-02-12T17:33:14.098Z,34.22
2023-02-12T17:35:40.937Z,36.65
2023-02-12T17:38:07.941Z,38.63
2023-02-12T17:40:38.548Z,34.75
2023-02-12T17:43:06.137Z,33.22
2023-02-12T17:45:33.130Z,38.90
2023-02-12T17:47:59.782Z,37.35
2023-02-12T17:50:26.835Z,38.92
2023-02-12T17:52:53.469Z,37.70
2023-02-12T17:55:25.154Z,34.33
2023-02-12T17:57:53.745Z,35.60
2023-02-12T18:00:24.228Z,35.72
2023-02-12T18:02:52.211Z,32.13
2023-02-12T18:05:21.729Z,31.30
2023-02-12T18:07:48.403Z,34.08
2023-02-12T18:10:15.532Z,32.83
2023-02-12T18:12:42.406Z,33.58
2023-02-12T18:15:10.124Z,33.38
2023-02-12T18:17:37.638Z,32.85
2023-02-12T18:20:04.688Z,34.55
2023-02-12T18:22:33.320Z,33.42
2023-02-12T18:24:59.935Z,33.22
2023-02-12T18:27:26.681Z,34.13
2023-02-12T18:29:53.488Z,36.78
2023-02-12T18:32:20.140Z,39.08
2023-02-12T18:34:46.805Z,37.63
2023-02-12T18:37:14.209Z,40.92
2023-02-12T18:39:41.192Z,35.80
2023-02-12T18:42:11.037Z,37.90
2023-02-12T18:44:37.876Z,38.15
2023-02-12T18:47:04.724Z,37.75
2023-02-12T18:49:31.535Z,37.15
2023-02-12T18:51:58.524Z,36.53
2023-02-12T18:54:25.201Z,36.80
2023-02-12T18:56:53.499Z,35.47
2023-02-12T18:59:21.113Z,42.42
2023-02-12T19:01:50.540Z,35.72
2023-02-12T19:04:19.617Z,35.80
2023-02-12T19:06:50.396Z,32.85
2023-02-12T19:09:20.276Z,33.72
2023-02-12T19:11:48.741Z,35.58
2023-02-12T19:14:17.034Z,36.58
2023-02-12T19:16:45.162Z,36.35
2023-02-12T19:19:13.228Z,35.22
2023-02-12T19:21:43.072Z,34.55
2023-02-12T19:24:12.377Z,36.03
2023-02-12T19:26:40.018Z,35.15
2023-02-12T19:29:07.418Z,37.10
2023-02-12T19:31:37.039Z,37.30
2023-02-12T19:34:14.630Z,37.97
2023-02-12T19:36:41.594Z,38.42
2023-02-12T19:39:08.790Z,39.10
2023-02-12T19:41:41.089Z,41.40
2023-02-12T19:44:18.892Z,50.28
2023-02-12T19:46:46.852Z,44.08
2023-02-12T19:49:16.968Z,42.50
2023-02-12T19:51:44.366Z,39.60
2023-02-12T19:54:13.254Z,42.42
2023-02-12T19:56:40.598Z,40.72
2023-02-12T19:59:07.965Z,42.13
2023-02-12T20:01:35.196Z,41.75
2023-02-12T20:04:02.941Z,42.17
2023-02-12T20:06:33.277Z,41.55
2023-02-12T20:08:59.936Z,42.38
2023-02-12T20:11:31.368Z,43.10
2023-02-12T20:13:58.481Z,43.87
2023-02-12T20:16:34.313Z,42.33
2023-02-12T20:19:05.788Z,40.58
2023-02-12T20:21:32.825Z,41.50
2023-02-12T20:24:01.777Z,45.63
2023-02-12T20:26:32.339Z,43.70
2023-02-12T20:29:01.646Z,42.88
2023-02-12T20:31:32.547Z,40.53
2023-02-12T20:34:02.260Z,38.92
2023-02-12T20:36:34.469Z,40.10
2023-02-12T20:39:01.402Z,41.80
2023-02-12T20:41:28.834Z,40.65
2023-02-12T20:43:59.494Z,40.85
2023-02-12T20:46:26.959Z,40.10
2023-02-12T20:48:55.123Z,40.70
2023-02-12T20:51:27.912Z,42.63
2023-02-12T20:53:55.550Z,41.15
2023-02-12T20:56:27.623Z,38.90
2023-02-12T20:58:56.887Z,39.35
2023-02-12T21:01:34.727Z,40.38
2023-02-12T21:04:05.331Z,41.03
2023-02-12T21:06:31.986Z,39.72
2023-02-12T21:08:58.634Z,41.67
2023-02-12T21:11:29.213Z,38.67
2023-02-12T21:14:12.437Z,38.40
2023-02-12T21:16:48.735Z,37.97
2023-02-12T21:19:16.257Z,38.80
2023-02-12T21:21:47.083Z,39.28
2023-02-12T21:24:17.151Z,39.35
2023-02-12T21:26:44.227Z,37.83
2023-02-12T21:29:11.151Z,38.53
2023-02-12T21:31:45.811Z,39.53
2023-02-12T21:34:21.328Z,39.67
2023-02-12T21:36:49.011Z,39.20
2023-02-12T21:39:24.686Z,36.70
2023-02-12T21:41:53.914Z,40.22
2023-02-12T21:44:21.771Z,39.78
2023-02-12T21:46:48.446Z,40.55
2023-02-12T21:49:24.861Z,40.17
2023-02-12T21:51:54.511Z,42.15
2023-02-12T21:54:21.336Z,42.38
2023-02-12T21:56:49.701Z,42.83
2023-02-12T21:59:16.870Z,45.40
2023-02-12T22:01:55.257Z,43.00
2023-02-12T22:04:22.109Z,47.75
2023-02-12T22:06:51.094Z,45.30
2023-02-12T22:09:19.617Z,46.50
2023-02-12T22:11:46.456Z,44.53
2023-02-12T22:14:15.312Z,46.42
2023-02-12T22:16:42.679Z,43.72
2023-02-12T22:19:09.715Z,46.83
2023-02-12T22:21:39.537Z,46.22
2023-02-12T22:24:10.766Z,45.22
2023-02-12T22:26:37.468Z,45.28
2023-02-12T22:29:08.058Z,47.88
2023-02-12T22:31:37.098Z,45.05
2023-02-12T22:34:06.739Z,46.58
2023-02-12T22:36:36.152Z,46.95
2023-02-12T22:39:03.675Z,46.60
2023-02-12T22:41:30.451Z,47.53
2023-02-12T22:44:00.298Z,47.50
2023-02-12T22:46:27.792Z,47.33
2023-02-12T22:48:54.521Z,49.40
2023-02-12T22:51:25.518Z,48.55
2023-02-12T22:53:52.603Z,49.65
2023-02-12T22:56:19.560Z,51.58
2023-02-12T22:58:46.389Z,47.45
2023-02-12T23:01:18.322Z,49.33
2023-02-12T23:03:46.348Z,50.15
2023-02-12T23:06:18.757Z,47.90
2023-02-12T23:11:15.246Z,47.13
2023-02-12T23:13:42.010Z,47.40
2023-02-12T23:16:08.705Z,49.33
2023-02-12T23:18:35.441Z,45.53
2023-02-12T23:21:02.387Z,44.22
2023-02-12T23:23:29.043Z,45.25
2023-02-12T23:25:56.381Z,45.30
2023-02-12T23:28:23.679Z,46.60
2023-02-12T23:30:51.858Z,42.58
2023-02-12T23:33:19.923Z,45.17
2023-02-12T23:35:48.104Z,45.05
2023-02-12T23:38:15.503Z,42.75
2023-02-12T23:40:42.902Z,42.65
2023-02-12T23:43:09.576Z,43.95
2023-02-12T23:45:36.197Z,47.03
2023-02-12T23:48:02.921Z,46.67
2023-02-12T23:50:29.646Z,45.53
2023-02-12T23:52:56.396Z,46.58
2023-02-12T23:55:23.106Z,46.03
2023-02-12T23:57:50.499Z,47.72
